Airfield :
LOGIN :

Register | Disclaimer

   EN    FR    IT 

 










Legend :    VFR   Marginal VFR   IFR   Intensive IFR   Very Intensive IFR
Visi :
Ceiling :
>= 8 km
>= 3000ft
5 to 8 km
1000 to 3000 ft
1500m to 5 km
500 to 1000 ft
800 to 1500m
200 to 500 ft
< 800m
< 200 ft
Symbols :   Thunderstorms  Fog  Heavy snow  Heavy precipitations  Wind > 20 kt
SIGMETs :     Misc.  Thunderstorms  Icing  Turbulence  Mountain Waves  Volcanic Ashes






- Airport Elevation : 218 ft
- IATA code : LBG


LFPB - Paris / Le Bourget

CURRENT METAR :
  • 161200Z AUTO 03012KT 360V060 9999 ////// 10/M03 Q1027

EXPIRED METARs :
  • 161130Z AUTO 01010KT CAVOK 10/M03 Q1027 TEMPO 02015G25KT
  • 161100Z AUTO 03012KT 350V050 CAVOK 09/M02 Q1027 TEMPO 02015G25KT
  • 161030Z AUTO 04013KT 360V060 CAVOK 10/M02 Q1027 TEMPO 02015G25KT
  • 161000Z AUTO 01009KT 330V080 CAVOK 09/M02 Q1027 NOSIG
  • 160930Z AUTO 02009KT 330V060 CAVOK 09/M01 Q1027 NOSIG
  • 160900Z AUTO 01006KT 310V060 CAVOK 08/00 Q1028 NOSIG

TAF TAF LFPB
Valid from the 16 at 12:00 until the 17 at 12:00 UTC


161100Z 1612/1712 03010KT CAVOK
TEMPO 1612/1617 02015G25KT
ATIS : +33 1 48 62 43 92



MET'MAP, your aeronautical weather chart ! - Copyright ORBIFLY December 2007 - Disclaimer

ORBIFLY MET'MAP TEAM :

Programming & Development : Alexandra Zaïnal
Concept & original design : Baudouin d'Aumeries
Assistance for programming : Marc-Olivier Méhu
Technical & hardware support : Manuel Goepfert

Contact : metmap@orbifly.com




SOURCES & CREDITS :

   NOAA